sensor_id;sensor_type;location;lat;lon;timestamp;temperature;humidity
26408;DHT22;14583;43.604;1.364;2024-02-28T00:01:02;7.90;99.90
26408;DHT22;14583;43.604;1.364;2024-02-28T00:03:27;7.90;99.90
26408;DHT22;14583;43.604;1.364;2024-02-28T00:05:53;7.90;99.90
26408;DHT22;14583;43.604;1.364;2024-02-28T00:08:19;7.90;99.90
26408;DHT22;14583;43.604;1.364;2024-02-28T00:10:45;7.90;99.90
26408;DHT22;14583;43.604;1.364;2024-02-28T00:13:11;7.90;99.90
26408;DHT22;14583;43.604;1.364;2024-02-28T00:15:37;7.90;99.90
26408;DHT22;14583;43.604;1.364;2024-02-28T00:18:04;7.90;99.90
26408;DHT22;14583;43.604;1.364;2024-02-28T00:20:29;7.90;99.90
26408;DHT22;14583;43.604;1.364;2024-02-28T00:22:55;7.90;99.90
26408;DHT22;14583;43.604;1.364;2024-02-28T00:25:20;7.90;99.90
26408;DHT22;14583;43.604;1.364;2024-02-28T00:27:46;7.90;99.90
26408;DHT22;14583;43.604;1.364;2024-02-28T00:30:12;7.90;99.90
26408;DHT22;14583;43.604;1.364;2024-02-28T00:32:38;7.90;99.90
26408;DHT22;14583;43.604;1.364;2024-02-28T00:35:04;7.90;99.90
26408;DHT22;14583;43.604;1.364;2024-02-28T00:37:30;7.90;99.90
26408;DHT22;14583;43.604;1.364;2024-02-28T00:39:56;7.90;99.90
26408;DHT22;14583;43.604;1.364;2024-02-28T00:42:22;7.90;99.90
26408;DHT22;14583;43.604;1.364;2024-02-28T00:44:47;7.90;99.90
26408;DHT22;14583;43.604;1.364;2024-02-28T00:47:13;7.90;99.90
26408;DHT22;14583;43.604;1.364;2024-02-28T00:49:39;7.90;99.90
26408;DHT22;14583;43.604;1.364;2024-02-28T00:52:05;7.90;99.90
26408;DHT22;14583;43.604;1.364;2024-02-28T00:54:30;7.90;99.90
26408;DHT22;14583;43.604;1.364;2024-02-28T00:56:56;7.90;99.90
26408;DHT22;14583;43.604;1.364;2024-02-28T00:59:22;7.90;99.90
26408;DHT22;14583;43.604;1.364;2024-02-28T01:01:48;7.90;99.90
26408;DHT22;14583;43.604;1.364;2024-02-28T01:04:14;7.80;99.90
26408;DHT22;14583;43.604;1.364;2024-02-28T01:06:41;7.80;99.90
26408;DHT22;14583;43.604;1.364;2024-02-28T01:09:07;7.80;99.90
26408;DHT22;14583;43.604;1.364;2024-02-28T01:11:33;7.80;99.90
26408;DHT22;14583;43.604;1.364;2024-02-28T01:13:58;7.80;99.90
26408;DHT22;14583;43.604;1.364;2024-02-28T01:16:31;7.80;99.90
26408;DHT22;14583;43.604;1.364;2024-02-28T01:18:57;7.80;99.90
26408;DHT22;14583;43.604;1.364;2024-02-28T01:21:23;7.80;99.90
26408;DHT22;14583;43.604;1.364;2024-02-28T01:23:49;7.80;99.90
26408;DHT22;14583;43.604;1.364;2024-02-28T01:26:14;7.80;99.90
26408;DHT22;14583;43.604;1.364;2024-02-28T01:28:40;7.80;99.90
26408;DHT22;14583;43.604;1.364;2024-02-28T01:31:08;7.80;99.90
26408;DHT22;14583;43.604;1.364;2024-02-28T01:33:34;7.80;99.90
26408;DHT22;14583;43.604;1.364;2024-02-28T01:35:59;7.80;99.90
26408;DHT22;14583;43.604;1.364;2024-02-28T01:38:25;7.80;99.90
26408;DHT22;14583;43.604;1.364;2024-02-28T01:40:52;7.80;99.90
26408;DHT22;14583;43.604;1.364;2024-02-28T01:43:18;7.70;99.90
26408;DHT22;14583;43.604;1.364;2024-02-28T01:45:43;7.80;99.90
26408;DHT22;14583;43.604;1.364;2024-02-28T01:48:10;7.70;99.90
26408;DHT22;14583;43.604;1.364;2024-02-28T01:50:37;7.70;99.90
26408;DHT22;14583;43.604;1.364;2024-02-28T01:53:04;7.70;99.90
26408;DHT22;14583;43.604;1.364;2024-02-28T01:55:31;7.70;99.90
26408;DHT22;14583;43.604;1.364;2024-02-28T01:57:57;7.70;99.90
26408;DHT22;14583;43.604;1.364;2024-02-28T02:00:25;7.70;99.90
26408;DHT22;14583;43.604;1.364;2024-02-28T02:02:50;7.70;99.90
26408;DHT22;14583;43.604;1.364;2024-02-28T02:05:17;7.70;99.90
26408;DHT22;14583;43.604;1.364;2024-02-28T02:07:48;7.70;99.90
26408;DHT22;14583;43.604;1.364;2024-02-28T02:10:13;7.60;99.90
26408;DHT22;14583;43.604;1.364;2024-02-28T02:12:39;7.60;99.90
26408;DHT22;14583;43.604;1.364;2024-02-28T02:15:05;7.60;99.90
26408;DHT22;14583;43.604;1.364;2024-02-28T02:17:31;7.60;99.90
26408;DHT22;14583;43.604;1.364;2024-02-28T02:19:57;7.60;99.90
26408;DHT22;14583;43.604;1.364;2024-02-28T02:22:23;7.60;99.90
26408;DHT22;14583;43.604;1.364;2024-02-28T02:24:51;7.60;99.90
26408;DHT22;14583;43.604;1.364;2024-02-28T02:27:16;7.60;99.90
26408;DHT22;14583;43.604;1.364;2024-02-28T02:29:42;7.50;99.90
26408;DHT22;14583;43.604;1.364;2024-02-28T02:32:08;7.60;99.90
26408;DHT22;14583;43.604;1.364;2024-02-28T02:34:33;7.50;99.90
26408;DHT22;14583;43.604;1.364;2024-02-28T02:36:59;7.50;99.90
26408;DHT22;14583;43.604;1.364;2024-02-28T02:39:25;7.50;99.90
26408;DHT22;14583;43.604;1.364;2024-02-28T02:41:50;7.50;99.90
26408;DHT22;14583;43.604;1.364;2024-02-28T02:44:17;7.50;99.90
26408;DHT22;14583;43.604;1.364;2024-02-28T02:46:43;7.50;99.90
26408;DHT22;14583;43.604;1.364;2024-02-28T02:49:09;7.50;99.90
26408;DHT22;14583;43.604;1.364;2024-02-28T02:51:34;7.50;99.90
26408;DHT22;14583;43.604;1.364;2024-02-28T02:54:06;7.50;99.90
26408;DHT22;14583;43.604;1.364;2024-02-28T02:56:32;7.50;99.90
26408;DHT22;14583;43.604;1.364;2024-02-28T02:58:57;7.50;99.90
26408;DHT22;14583;43.604;1.364;2024-02-28T03:01:23;7.50;99.90
26408;DHT22;14583;43.604;1.364;2024-02-28T03:03:52;7.50;99.90
26408;DHT22;14583;43.604;1.364;2024-02-28T03:06:18;7.50;99.90
26408;DHT22;14583;43.604;1.364;2024-02-28T03:08:44;7.60;99.90
26408;DHT22;14583;43.604;1.364;2024-02-28T03:11:09;7.60;99.90
26408;DHT22;14583;43.604;1.364;2024-02-28T03:13:36;7.50;99.90
26408;DHT22;14583;43.604;1.364;2024-02-28T03:16:12;7.40;99.90
26408;DHT22;14583;43.604;1.364;2024-02-28T03:18:47;7.40;99.90
26408;DHT22;14583;43.604;1.364;2024-02-28T03:21:15;7.40;99.90
26408;DHT22;14583;43.604;1.364;2024-02-28T03:23:42;7.40;99.90
26408;DHT22;14583;43.604;1.364;2024-02-28T03:26:08;7.40;99.90
26408;DHT22;14583;43.604;1.364;2024-02-28T03:28:34;7.40;99.90
26408;DHT22;14583;43.604;1.364;2024-02-28T03:31:20;7.40;99.90
26408;DHT22;14583;43.604;1.364;2024-02-28T03:33:46;7.40;99.90
26408;DHT22;14583;43.604;1.364;2024-02-28T03:36:12;7.50;99.90
26408;DHT22;14583;43.604;1.364;2024-02-28T03:38:38;7.40;99.90
26408;DHT22;14583;43.604;1.364;2024-02-28T03:41:05;7.40;99.90
26408;DHT22;14583;43.604;1.364;2024-02-28T03:43:30;7.40;99.90
26408;DHT22;14583;43.604;1.364;2024-02-28T03:45:56;7.30;99.90
26408;DHT22;14583;43.604;1.364;2024-02-28T03:48:22;7.40;99.90
26408;DHT22;14583;43.604;1.364;2024-02-28T03:50:48;7.40;99.90
26408;DHT22;14583;43.604;1.364;2024-02-28T03:53:13;7.40;99.90
26408;DHT22;14583;43.604;1.364;2024-02-28T03:55:39;7.40;99.90
26408;DHT22;14583;43.604;1.364;2024-02-28T03:58:05;7.30;99.90
26408;DHT22;14583;43.604;1.364;2024-02-28T04:00:34;7.40;99.90
26408;DHT22;14583;43.604;1.364;2024-02-28T04:03:00;7.30;99.90
26408;DHT22;14583;43.604;1.364;2024-02-28T04:05:26;7.30;99.90
26408;DHT22;14583;43.604;1.364;2024-02-28T04:07:52;7.40;99.90
26408;DHT22;14583;43.604;1.364;2024-02-28T04:10:17;7.30;99.90
26408;DHT22;14583;43.604;1.364;2024-02-28T04:12:43;7.30;99.90
26408;DHT22;14583;43.604;1.364;2024-02-28T04:15:11;7.30;99.90
26408;DHT22;14583;43.604;1.364;2024-02-28T04:17:38;7.30;99.90
26408;DHT22;14583;43.604;1.364;2024-02-28T04:20:08;7.30;99.90
26408;DHT22;14583;43.604;1.364;2024-02-28T04:22:34;7.30;99.90
26408;DHT22;14583;43.604;1.364;2024-02-28T04:24:59;7.30;99.90
26408;DHT22;14583;43.604;1.364;2024-02-28T04:27:25;7.30;99.90
26408;DHT22;14583;43.604;1.364;2024-02-28T04:29:51;7.30;99.90
26408;DHT22;14583;43.604;1.364;2024-02-28T04:32:16;7.30;99.90
26408;DHT22;14583;43.604;1.364;2024-02-28T04:34:42;7.30;99.90
26408;DHT22;14583;43.604;1.364;2024-02-28T04:37:08;7.30;99.90
26408;DHT22;14583;43.604;1.364;2024-02-28T04:39:34;7.30;99.90
26408;DHT22;14583;43.604;1.364;2024-02-28T04:41:59;7.30;99.90
26408;DHT22;14583;43.604;1.364;2024-02-28T04:44:25;7.30;99.90
26408;DHT22;14583;43.604;1.364;2024-02-28T04:46:57;7.30;99.90
26408;DHT22;14583;43.604;1.364;2024-02-28T04:49:28;7.30;99.90
26408;DHT22;14583;43.604;1.364;2024-02-28T04:52:00;7.20;99.90
26408;DHT22;14583;43.604;1.364;2024-02-28T04:54:26;7.30;99.90
26408;DHT22;14583;43.604;1.364;2024-02-28T04:56:52;7.30;99.90
26408;DHT22;14583;43.604;1.364;2024-02-28T04:59:17;7.20;99.90
26408;DHT22;14583;43.604;1.364;2024-02-28T05:01:43;7.20;99.90
26408;DHT22;14583;43.604;1.364;2024-02-28T05:04:11;7.20;99.90
26408;DHT22;14583;43.604;1.364;2024-02-28T05:06:37;7.20;99.90
26408;DHT22;14583;43.604;1.364;2024-02-28T05:09:02;7.20;99.90
26408;DHT22;14583;43.604;1.364;2024-02-28T05:11:28;7.10;99.90
26408;DHT22;14583;43.604;1.364;2024-02-28T05:13:54;7.10;99.90
26408;DHT22;14583;43.604;1.364;2024-02-28T05:16:20;7.10;99.90
26408;DHT22;14583;43.604;1.364;2024-02-28T05:18:46;7.10;99.90
26408;DHT22;14583;43.604;1.364;2024-02-28T05:21:13;7.10;99.90
26408;DHT22;14583;43.604;1.364;2024-02-28T05:23:39;7.10;99.90
26408;DHT22;14583;43.604;1.364;2024-02-28T05:26:05;7.10;99.90
26408;DHT22;14583;43.604;1.364;2024-02-28T05:28:35;7.20;99.90
26408;DHT22;14583;43.604;1.364;2024-02-28T05:31:23;7.10;99.90
26408;DHT22;14583;43.604;1.364;2024-02-28T05:33:53;7.10;99.90
26408;DHT22;14583;43.604;1.364;2024-02-28T05:36:20;7.10;99.90
26408;DHT22;14583;43.604;1.364;2024-02-28T05:38:46;7.10;99.90
26408;DHT22;14583;43.604;1.364;2024-02-28T05:41:12;7.20;99.90
26408;DHT22;14583;43.604;1.364;2024-02-28T05:43:38;7.00;99.90
26408;DHT22;14583;43.604;1.364;2024-02-28T05:46:04;7.00;99.90
26408;DHT22;14583;43.604;1.364;2024-02-28T05:48:29;7.00;99.90
26408;DHT22;14583;43.604;1.364;2024-02-28T05:50:55;7.00;99.90
26408;DHT22;14583;43.604;1.364;2024-02-28T05:53:21;7.00;99.90
26408;DHT22;14583;43.604;1.364;2024-02-28T05:55:46;7.10;99.90
26408;DHT22;14583;43.604;1.364;2024-02-28T05:58:13;7.00;99.90
26408;DHT22;14583;43.604;1.364;2024-02-28T06:00:39;7.00;99.90
26408;DHT22;14583;43.604;1.364;2024-02-28T06:03:05;7.10;99.90
26408;DHT22;14583;43.604;1.364;2024-02-28T06:05:31;6.90;99.90
26408;DHT22;14583;43.604;1.364;2024-02-28T06:07:56;7.00;99.90
26408;DHT22;14583;43.604;1.364;2024-02-28T06:10:22;6.90;99.90
26408;DHT22;14583;43.604;1.364;2024-02-28T06:12:47;6.90;99.90
26408;DHT22;14583;43.604;1.364;2024-02-28T06:15:13;6.90;99.90
26408;DHT22;14583;43.604;1.364;2024-02-28T06:17:41;6.80;99.90
26408;DHT22;14583;43.604;1.364;2024-02-28T06:20:07;6.80;99.90
26408;DHT22;14583;43.604;1.364;2024-02-28T06:22:33;6.80;99.90
26408;DHT22;14583;43.604;1.364;2024-02-28T06:24:58;6.80;99.90
26408;DHT22;14583;43.604;1.364;2024-02-28T06:27:24;6.80;99.90
26408;DHT22;14583;43.604;1.364;2024-02-28T06:29:52;6.70;99.90
26408;DHT22;14583;43.604;1.364;2024-02-28T06:32:17;6.60;99.90
26408;DHT22;14583;43.604;1.364;2024-02-28T06:34:43;6.70;99.90
26408;DHT22;14583;43.604;1.364;2024-02-28T06:37:09;6.60;99.90
26408;DHT22;14583;43.604;1.364;2024-02-28T06:39:34;6.70;99.90
26408;DHT22;14583;43.604;1.364;2024-02-28T06:42:00;6.70;99.90
26408;DHT22;14583;43.604;1.364;2024-02-28T06:44:26;6.70;99.90
26408;DHT22;14583;43.604;1.364;2024-02-28T06:46:51;6.80;99.90
26408;DHT22;14583;43.604;1.364;2024-02-28T06:49:17;6.80;99.90
26408;DHT22;14583;43.604;1.364;2024-02-28T06:51:44;6.70;99.90
26408;DHT22;14583;43.604;1.364;2024-02-28T06:54:10;6.70;99.90
26408;DHT22;14583;43.604;1.364;2024-02-28T06:56:36;6.80;99.90
26408;DHT22;14583;43.604;1.364;2024-02-28T06:59:02;6.70;99.90
26408;DHT22;14583;43.604;1.364;2024-02-28T07:01:29;6.70;99.90
26408;DHT22;14583;43.604;1.364;2024-02-28T07:03:55;6.80;99.90
26408;DHT22;14583;43.604;1.364;2024-02-28T07:06:20;6.80;99.90
26408;DHT22;14583;43.604;1.364;2024-02-28T07:08:46;6.80;99.90
26408;DHT22;14583;43.604;1.364;2024-02-28T07:11:15;6.80;99.90
26408;DHT22;14583;43.604;1.364;2024-02-28T07:13:41;6.80;99.90
26408;DHT22;14583;43.604;1.364;2024-02-28T07:16:19;6.90;99.90
26408;DHT22;14583;43.604;1.364;2024-02-28T07:19:03;6.80;99.90
26408;DHT22;14583;43.604;1.364;2024-02-28T07:21:29;6.80;99.90
26408;DHT22;14583;43.604;1.364;2024-02-28T07:23:56;6.90;99.90
26408;DHT22;14583;43.604;1.364;2024-02-28T07:26:21;6.80;99.90
26408;DHT22;14583;43.604;1.364;2024-02-28T07:28:47;6.80;99.90
26408;DHT22;14583;43.604;1.364;2024-02-28T07:31:21;6.80;99.90
26408;DHT22;14583;43.604;1.364;2024-02-28T07:33:47;6.70;99.90
26408;DHT22;14583;43.604;1.364;2024-02-28T07:36:16;6.80;99.90
26408;DHT22;14583;43.604;1.364;2024-02-28T07:38:45;6.90;99.90
26408;DHT22;14583;43.604;1.364;2024-02-28T07:41:10;6.90;99.90
26408;DHT22;14583;43.604;1.364;2024-02-28T07:43:36;6.80;99.90
26408;DHT22;14583;43.604;1.364;2024-02-28T07:46:08;6.90;99.90
26408;DHT22;14583;43.604;1.364;2024-02-28T07:48:34;6.90;99.90
26408;DHT22;14583;43.604;1.364;2024-02-28T07:51:00;6.90;99.90
26408;DHT22;14583;43.604;1.364;2024-02-28T07:53:28;6.90;99.90
26408;DHT22;14583;43.604;1.364;2024-02-28T07:55:54;7.00;99.90
26408;DHT22;14583;43.604;1.364;2024-02-28T07:58:20;7.00;99.90
26408;DHT22;14583;43.604;1.364;2024-02-28T08:00:45;7.10;99.90
26408;DHT22;14583;43.604;1.364;2024-02-28T08:03:11;7.00;99.90
26408;DHT22;14583;43.604;1.364;2024-02-28T08:05:37;6.90;99.90
26408;DHT22;14583;43.604;1.364;2024-02-28T08:08:07;6.90;99.90
26408;DHT22;14583;43.604;1.364;2024-02-28T08:10:37;6.90;99.90
26408;DHT22;14583;43.604;1.364;2024-02-28T08:13:06;6.90;99.90
26408;DHT22;14583;43.604;1.364;2024-02-28T08:15:33;6.90;99.90
26408;DHT22;14583;43.604;1.364;2024-02-28T08:17:58;6.90;99.90
26408;DHT22;14583;43.604;1.364;2024-02-28T08:20:24;7.00;99.90
26408;DHT22;14583;43.604;1.364;2024-02-28T08:22:50;7.00;99.90
26408;DHT22;14583;43.604;1.364;2024-02-28T08:25:18;7.10;99.90
26408;DHT22;14583;43.604;1.364;2024-02-28T08:27:44;7.00;99.90
26408;DHT22;14583;43.604;1.364;2024-02-28T08:30:10;6.90;99.90
26408;DHT22;14583;43.604;1.364;2024-02-28T08:32:35;7.00;99.90
26408;DHT22;14583;43.604;1.364;2024-02-28T08:35:01;6.90;99.90
26408;DHT22;14583;43.604;1.364;2024-02-28T08:37:27;7.00;99.90
26408;DHT22;14583;43.604;1.364;2024-02-28T08:39:54;7.00;99.90
26408;DHT22;14583;43.604;1.364;2024-02-28T08:42:25;7.00;99.90
26408;DHT22;14583;43.604;1.364;2024-02-28T08:44:52;7.10;99.90
26408;DHT22;14583;43.604;1.364;2024-02-28T08:47:17;7.00;99.90
26408;DHT22;14583;43.604;1.364;2024-02-28T08:49:44;6.90;99.90
26408;DHT22;14583;43.604;1.364;2024-02-28T08:52:10;7.00;99.90
26408;DHT22;14583;43.604;1.364;2024-02-28T08:54:36;7.00;99.90
26408;DHT22;14583;43.604;1.364;2024-02-28T08:57:02;7.00;99.90
26408;DHT22;14583;43.604;1.364;2024-02-28T08:59:27;7.00;99.90
26408;DHT22;14583;43.604;1.364;2024-02-28T09:01:53;7.10;99.90
26408;DHT22;14583;43.604;1.364;2024-02-28T09:04:19;7.10;99.90
26408;DHT22;14583;43.604;1.364;2024-02-28T09:06:44;7.20;99.90
26408;DHT22;14583;43.604;1.364;2024-02-28T09:09:10;7.10;99.90
26408;DHT22;14583;43.604;1.364;2024-02-28T09:11:36;7.20;99.90
26408;DHT22;14583;43.604;1.364;2024-02-28T09:14:01;7.10;99.90
26408;DHT22;14583;43.604;1.364;2024-02-28T09:16:27;7.10;99.90
26408;DHT22;14583;43.604;1.364;2024-02-28T09:18:54;7.30;99.90
26408;DHT22;14583;43.604;1.364;2024-02-28T09:21:19;7.30;99.90
26408;DHT22;14583;43.604;1.364;2024-02-28T09:23:45;7.40;99.90
26408;DHT22;14583;43.604;1.364;2024-02-28T09:26:11;7.40;99.90
26408;DHT22;14583;43.604;1.364;2024-02-28T09:28:36;7.40;99.90
26408;DHT22;14583;43.604;1.364;2024-02-28T09:31:02;7.60;99.90
26408;DHT22;14583;43.604;1.364;2024-02-28T09:33:29;7.70;99.90
26408;DHT22;14583;43.604;1.364;2024-02-28T09:35:55;7.60;99.90
26408;DHT22;14583;43.604;1.364;2024-02-28T09:38:20;7.70;99.90
26408;DHT22;14583;43.604;1.364;2024-02-28T09:40:47;7.70;99.90
26408;DHT22;14583;43.604;1.364;2024-02-28T09:43:29;7.70;99.90
26408;DHT22;14583;43.604;1.364;2024-02-28T09:46:08;7.80;99.90
26408;DHT22;14583;43.604;1.364;2024-02-28T09:48:40;7.70;99.90
26408;DHT22;14583;43.604;1.364;2024-02-28T09:51:06;7.70;99.90
26408;DHT22;14583;43.604;1.364;2024-02-28T09:53:33;7.60;99.90
26408;DHT22;14583;43.604;1.364;2024-02-28T09:55:59;7.60;99.90
26408;DHT22;14583;43.604;1.364;2024-02-28T09:58:25;7.70;99.90
26408;DHT22;14583;43.604;1.364;2024-02-28T10:00:52;7.80;99.90
26408;DHT22;14583;43.604;1.364;2024-02-28T10:03:21;7.80;99.90
26408;DHT22;14583;43.604;1.364;2024-02-28T10:05:48;8.00;99.90
26408;DHT22;14583;43.604;1.364;2024-02-28T10:08:16;7.90;99.90
26408;DHT22;14583;43.604;1.364;2024-02-28T10:10:46;8.10;99.90
26408;DHT22;14583;43.604;1.364;2024-02-28T10:13:17;8.10;99.90
26408;DHT22;14583;43.604;1.364;2024-02-28T10:15:43;8.10;99.90
26408;DHT22;14583;43.604;1.364;2024-02-28T10:18:08;8.20;99.90
26408;DHT22;14583;43.604;1.364;2024-02-28T10:20:34;8.20;99.90
26408;DHT22;14583;43.604;1.364;2024-02-28T10:23:06;8.30;99.90
26408;DHT22;14583;43.604;1.364;2024-02-28T10:25:45;8.40;99.90
26408;DHT22;14583;43.604;1.364;2024-02-28T10:28:11;8.40;99.90
26408;DHT22;14583;43.604;1.364;2024-02-28T10:30:42;8.50;99.90
26408;DHT22;14583;43.604;1.364;2024-02-28T10:33:15;8.40;99.90
26408;DHT22;14583;43.604;1.364;2024-02-28T10:35:43;8.40;99.90
26408;DHT22;14583;43.604;1.364;2024-02-28T10:38:11;8.50;99.90
26408;DHT22;14583;43.604;1.364;2024-02-28T10:40:40;8.60;99.90
26408;DHT22;14583;43.604;1.364;2024-02-28T10:43:08;8.60;99.90
26408;DHT22;14583;43.604;1.364;2024-02-28T10:45:39;8.70;99.90
26408;DHT22;14583;43.604;1.364;2024-02-28T10:48:05;8.70;99.90
26408;DHT22;14583;43.604;1.364;2024-02-28T10:50:32;8.70;99.90
26408;DHT22;14583;43.604;1.364;2024-02-28T10:53:04;8.80;99.90
26408;DHT22;14583;43.604;1.364;2024-02-28T10:55:34;8.90;99.90
26408;DHT22;14583;43.604;1.364;2024-02-28T10:58:09;8.90;99.90
26408;DHT22;14583;43.604;1.364;2024-02-28T11:00:36;8.90;99.90
26408;DHT22;14583;43.604;1.364;2024-02-28T11:03:04;8.90;99.90
26408;DHT22;14583;43.604;1.364;2024-02-28T11:05:44;9.00;99.90
26408;DHT22;14583;43.604;1.364;2024-02-28T11:08:23;9.00;99.90
26408;DHT22;14583;43.604;1.364;2024-02-28T11:11:04;9.10;99.90
26408;DHT22;14583;43.604;1.364;2024-02-28T11:13:30;9.30;99.90
26408;DHT22;14583;43.604;1.364;2024-02-28T11:16:11;9.30;99.90
26408;DHT22;14583;43.604;1.364;2024-02-28T11:18:48;9.40;99.90
26408;DHT22;14583;43.604;1.364;2024-02-28T11:21:17;9.30;99.90
26408;DHT22;14583;43.604;1.364;2024-02-28T11:23:46;9.30;99.90
26408;DHT22;14583;43.604;1.364;2024-02-28T11:26:13;9.30;99.90
26408;DHT22;14583;43.604;1.364;2024-02-28T11:28:39;9.40;99.90
26408;DHT22;14583;43.604;1.364;2024-02-28T11:31:05;9.40;99.90
26408;DHT22;14583;43.604;1.364;2024-02-28T11:33:31;9.40;99.90
26408;DHT22;14583;43.604;1.364;2024-02-28T11:35:59;9.40;99.90
26408;DHT22;14583;43.604;1.364;2024-02-28T11:38:27;9.70;99.90
26408;DHT22;14583;43.604;1.364;2024-02-28T11:40:53;9.60;99.90
26408;DHT22;14583;43.604;1.364;2024-02-28T11:43:21;9.70;99.90
26408;DHT22;14583;43.604;1.364;2024-02-28T11:45:46;9.70;99.90
26408;DHT22;14583;43.604;1.364;2024-02-28T11:48:16;9.80;99.90
26408;DHT22;14583;43.604;1.364;2024-02-28T11:50:42;9.60;99.90
26408;DHT22;14583;43.604;1.364;2024-02-28T11:53:08;9.70;99.90
26408;DHT22;14583;43.604;1.364;2024-02-28T11:55:34;9.70;99.90
26408;DHT22;14583;43.604;1.364;2024-02-28T11:58:00;9.70;99.90
26408;DHT22;14583;43.604;1.364;2024-02-28T12:00:26;10.00;99.90
26408;DHT22;14583;43.604;1.364;2024-02-28T12:02:52;9.90;99.90
26408;DHT22;14583;43.604;1.364;2024-02-28T12:05:19;10.10;99.90
26408;DHT22;14583;43.604;1.364;2024-02-28T12:07:45;10.20;99.90
26408;DHT22;14583;43.604;1.364;2024-02-28T12:10:13;10.20;99.90
26408;DHT22;14583;43.604;1.364;2024-02-28T12:12:39;10.20;99.90
26408;DHT22;14583;43.604;1.364;2024-02-28T12:15:05;10.40;99.90
26408;DHT22;14583;43.604;1.364;2024-02-28T12:17:31;10.50;99.90
26408;DHT22;14583;43.604;1.364;2024-02-28T12:20:00;10.40;99.90
26408;DHT22;14583;43.604;1.364;2024-02-28T12:22:26;10.40;99.90
26408;DHT22;14583;43.604;1.364;2024-02-28T12:24:52;10.30;99.90
26408;DHT22;14583;43.604;1.364;2024-02-28T12:27:19;10.40;99.90
26408;DHT22;14583;43.604;1.364;2024-02-28T12:29:45;10.50;99.90
26408;DHT22;14583;43.604;1.364;2024-02-28T12:32:11;10.40;99.90
26408;DHT22;14583;43.604;1.364;2024-02-28T12:34:37;10.50;99.90
26408;DHT22;14583;43.604;1.364;2024-02-28T12:37:03;10.40;99.90
26408;DHT22;14583;43.604;1.364;2024-02-28T12:39:30;10.40;99.90
26408;DHT22;14583;43.604;1.364;2024-02-28T12:41:59;10.50;99.90
26408;DHT22;14583;43.604;1.364;2024-02-28T12:44:25;10.60;99.90
26408;DHT22;14583;43.604;1.364;2024-02-28T12:46:51;10.60;99.90
26408;DHT22;14583;43.604;1.364;2024-02-28T12:49:17;10.50;99.90
26408;DHT22;14583;43.604;1.364;2024-02-28T12:51:44;10.50;99.90
26408;DHT22;14583;43.604;1.364;2024-02-28T12:54:12;10.40;99.90
26408;DHT22;14583;43.604;1.364;2024-02-28T12:56:40;10.30;99.90
26408;DHT22;14583;43.604;1.364;2024-02-28T12:59:09;10.30;99.90
26408;DHT22;14583;43.604;1.364;2024-02-28T13:01:35;10.30;99.90
26408;DHT22;14583;43.604;1.364;2024-02-28T13:04:01;10.60;99.90
26408;DHT22;14583;43.604;1.364;2024-02-28T13:06:27;10.60;99.90
26408;DHT22;14583;43.604;1.364;2024-02-28T13:08:53;10.60;99.90
26408;DHT22;14583;43.604;1.364;2024-02-28T13:11:20;10.50;99.90
26408;DHT22;14583;43.604;1.364;2024-02-28T13:13:47;10.60;99.90
26408;DHT22;14583;43.604;1.364;2024-02-28T13:16:13;10.80;99.90
26408;DHT22;14583;43.604;1.364;2024-02-28T13:18:38;11.00;99.90
26408;DHT22;14583;43.604;1.364;2024-02-28T13:21:04;11.00;99.90
26408;DHT22;14583;43.604;1.364;2024-02-28T13:23:30;10.90;99.90
26408;DHT22;14583;43.604;1.364;2024-02-28T13:26:00;11.00;99.90
26408;DHT22;14583;43.604;1.364;2024-02-28T13:28:27;10.90;99.90
26408;DHT22;14583;43.604;1.364;2024-02-28T13:30:59;10.70;99.90
26408;DHT22;14583;43.604;1.364;2024-02-28T13:33:26;10.90;99.90
26408;DHT22;14583;43.604;1.364;2024-02-28T13:35:52;11.00;99.90
26408;DHT22;14583;43.604;1.364;2024-02-28T13:38:19;11.00;99.90
26408;DHT22;14583;43.604;1.364;2024-02-28T13:40:49;11.10;99.90
26408;DHT22;14583;43.604;1.364;2024-02-28T13:43:16;11.10;99.90
26408;DHT22;14583;43.604;1.364;2024-02-28T13:45:49;11.20;99.90
26408;DHT22;14583;43.604;1.364;2024-02-28T13:48:21;11.20;99.90
26408;DHT22;14583;43.604;1.364;2024-02-28T13:50:48;11.30;99.90
26408;DHT22;14583;43.604;1.364;2024-02-28T13:53:15;11.30;99.90
26408;DHT22;14583;43.604;1.364;2024-02-28T13:55:47;11.50;99.90
26408;DHT22;14583;43.604;1.364;2024-02-28T13:58:13;11.50;99.90
26408;DHT22;14583;43.604;1.364;2024-02-28T14:00:39;11.60;99.90
26408;DHT22;14583;43.604;1.364;2024-02-28T14:03:06;11.70;99.90
26408;DHT22;14583;43.604;1.364;2024-02-28T14:05:32;11.80;99.90
26408;DHT22;14583;43.604;1.364;2024-02-28T14:07:57;11.70;99.90
26408;DHT22;14583;43.604;1.364;2024-02-28T14:10:24;11.80;99.90
26408;DHT22;14583;43.604;1.364;2024-02-28T14:12:50;11.80;99.90
26408;DHT22;14583;43.604;1.364;2024-02-28T14:15:18;11.80;99.90
26408;DHT22;14583;43.604;1.364;2024-02-28T14:17:44;11.70;99.90
26408;DHT22;14583;43.604;1.364;2024-02-28T14:20:10;11.80;99.90
26408;DHT22;14583;43.604;1.364;2024-02-28T14:22:36;12.00;99.90
26408;DHT22;14583;43.604;1.364;2024-02-28T14:25:02;11.90;99.90
26408;DHT22;14583;43.604;1.364;2024-02-28T14:27:29;12.10;99.90
26408;DHT22;14583;43.604;1.364;2024-02-28T14:29:58;12.20;99.90
26408;DHT22;14583;43.604;1.364;2024-02-28T14:32:24;12.30;99.90
26408;DHT22;14583;43.604;1.364;2024-02-28T14:34:50;12.40;99.90
26408;DHT22;14583;43.604;1.364;2024-02-28T14:37:16;12.40;99.90
26408;DHT22;14583;43.604;1.364;2024-02-28T14:39:42;12.50;99.90
26408;DHT22;14583;43.604;1.364;2024-02-28T14:42:08;12.60;99.90
26408;DHT22;14583;43.604;1.364;2024-02-28T14:44:34;12.70;99.90
26408;DHT22;14583;43.604;1.364;2024-02-28T14:47:00;12.70;99.90
26408;DHT22;14583;43.604;1.364;2024-02-28T14:49:26;12.70;99.90
26408;DHT22;14583;43.604;1.364;2024-02-28T14:51:52;13.00;99.90
26408;DHT22;14583;43.604;1.364;2024-02-28T14:54:17;13.10;99.90
26408;DHT22;14583;43.604;1.364;2024-02-28T14:56:48;13.10;99.90
26408;DHT22;14583;43.604;1.364;2024-02-28T14:59:14;13.30;99.90
26408;DHT22;14583;43.604;1.364;2024-02-28T15:01:39;13.40;99.90
26408;DHT22;14583;43.604;1.364;2024-02-28T15:04:05;13.40;99.60
26408;DHT22;14583;43.604;1.364;2024-02-28T15:06:33;13.70;99.70
26408;DHT22;14583;43.604;1.364;2024-02-28T15:08:59;13.70;99.10
26408;DHT22;14583;43.604;1.364;2024-02-28T15:11:25;13.80;97.60
26408;DHT22;14583;43.604;1.364;2024-02-28T15:13:50;14.10;97.90
26408;DHT22;14583;43.604;1.364;2024-02-28T15:16:16;14.40;97.30
26408;DHT22;14583;43.604;1.364;2024-02-28T15:18:42;14.90;98.30
26408;DHT22;14583;43.604;1.364;2024-02-28T15:21:08;15.30;97.60
26408;DHT22;14583;43.604;1.364;2024-02-28T15:23:33;16.40;97.10
26408;DHT22;14583;43.604;1.364;2024-02-28T15:26:00;17.10;96.90
26408;DHT22;14583;43.604;1.364;2024-02-28T15:28:26;18.80;93.80
26408;DHT22;14583;43.604;1.364;2024-02-28T15:30:52;23.60;91.10
26408;DHT22;14583;43.604;1.364;2024-02-28T15:33:18;26.20;73.50
26408;DHT22;14583;43.604;1.364;2024-02-28T15:35:44;26.70;64.90
26408;DHT22;14583;43.604;1.364;2024-02-28T15:38:10;28.80;62.80
26408;DHT22;14583;43.604;1.364;2024-02-28T15:40:35;29.70;58.00